createdAt,value
2022-12-14T00:00:41.408Z,99753.84
2022-12-14T00:01:49.134Z,99753.69
2022-12-14T00:02:51.973Z,99759.88
2022-12-14T00:03:55.996Z,99759.75
2022-12-14T00:04:58.238Z,99756.03
2022-12-14T00:06:14.483Z,99757.72
2022-12-14T00:07:16.730Z,99752.06
2022-12-14T00:08:19.022Z,99751.22
2022-12-14T00:09:30.544Z,99743.50
2022-12-14T00:10:34.133Z,99754.88
2022-12-14T00:11:36.390Z,99750.22
2022-12-14T00:12:38.576Z,99752.06
2022-12-14T00:13:42.336Z,99754.59
2022-12-14T00:14:47.009Z,99752.59
2022-12-14T00:15:49.251Z,99750.75
2022-12-14T00:16:51.564Z,99743.53
2022-12-14T00:17:53.970Z,99743.38
2022-12-14T00:18:58.368Z,99743.53
2022-12-14T00:20:00.555Z,99741.72
2022-12-14T00:21:12.121Z,99733.53
2022-12-14T00:22:14.465Z,99736.03
2022-12-14T00:23:16.752Z,99734.88
2022-12-14T00:24:18.993Z,99734.72
2022-12-14T00:25:22.507Z,99738.41
2022-12-14T00:26:32.490Z,99729.34
2022-12-14T00:27:34.753Z,99731.03
2022-12-14T00:28:37.908Z,99730.19
2022-12-14T00:29:40.136Z,99724.81
2022-12-14T00:30:42.408Z,99727.38
2022-12-14T00:31:44.646Z,99728.38
2022-12-14T00:32:51.609Z,99726.34
2022-12-14T00:33:54.820Z,99736.09
2022-12-14T00:34:57.026Z,99725.34
2022-12-14T00:35:59.455Z,99732.25
2022-12-14T00:37:01.712Z,99728.91
2022-12-14T00:38:03.933Z,99734.94
2022-12-14T00:39:06.414Z,99733.94
2022-12-14T00:40:09.282Z,99737.31
2022-12-14T00:41:11.748Z,99719.38
2022-12-14T00:42:13.949Z,99717.50
2022-12-14T00:43:16.213Z,99720.91
2022-12-14T00:44:18.406Z,99722.59
2022-12-14T00:45:20.648Z,99720.72
2022-12-14T00:46:25.440Z,99714.69
2022-12-14T00:47:27.758Z,99715.38
2022-12-14T00:48:30.572Z,99718.91
2022-12-14T00:49:33.215Z,99712.03
2022-12-14T00:50:35.462Z,99711.84
2022-12-14T00:51:37.664Z,99711.53
2022-12-14T00:52:39.872Z,99713.06
2022-12-14T00:53:44.006Z,99719.28
2022-12-14T00:54:47.440Z,99717.25
2022-12-14T00:55:50.389Z,99715.41
2022-12-14T00:56:52.591Z,99717.09
2022-12-14T00:57:54.932Z,99722.63
2022-12-14T00:58:57.131Z,99722.47
2022-12-14T00:59:59.345Z,99718.63
2022-12-14T01:01:12.660Z,99720.47
2022-12-14T01:02:15.107Z,99720.47
2022-12-14T01:03:17.643Z,99716.81
2022-12-14T01:04:22.407Z,99718.47
2022-12-14T01:05:24.994Z,99722.66
2022-12-14T01:06:27.186Z,99725.34
2022-12-14T01:07:29.406Z,99721.84
2022-12-14T01:08:38.251Z,99720.00
2022-12-14T01:09:40.611Z,99719.16
2022-12-14T01:10:42.994Z,99720.16
2022-12-14T01:11:46.550Z,99715.47
2022-12-14T01:12:48.800Z,99714.50
2022-12-14T01:13:51.063Z,99711.81
2022-12-14T01:14:53.258Z,99714.50
2022-12-14T01:15:55.591Z,99709.25
2022-12-14T01:16:57.875Z,99707.09
2022-12-14T01:18:00.089Z,99712.31
2022-12-14T01:19:02.700Z,99707.63
2022-12-14T01:20:05.614Z,99706.94
2022-12-14T01:21:12.104Z,99710.47
2022-12-14T01:22:14.336Z,99695.22
2022-12-14T01:23:16.596Z,99698.06
2022-12-14T01:24:19.163Z,99689.84
2022-12-14T01:25:21.342Z,99689.84
2022-12-14T01:26:25.711Z,99688.00
2022-12-14T01:27:28.103Z,99686.16
2022-12-14T01:28:30.357Z,99687.84
2022-12-14T01:29:32.841Z,99684.16
2022-12-14T01:30:35.088Z,99685.00
2022-12-14T01:31:39.187Z,99689.22
2022-12-14T01:32:41.530Z,99685.69
2022-12-14T01:33:47.584Z,99688.22
2022-12-14T01:34:49.932Z,99683.50
2022-12-14T01:35:52.151Z,99682.69
2022-12-14T01:36:54.675Z,99688.03
2022-12-14T01:37:56.861Z,99687.72
2022-12-14T01:39:01.695Z,99686.88
2022-12-14T01:40:05.435Z,99683.50
2022-12-14T01:41:08.790Z,99680.66
2022-12-14T01:42:12.556Z,99680.53
2022-12-14T01:43:15.823Z,99670.78
2022-12-14T01:44:21.067Z,99675.28
2022-12-14T01:45:23.341Z,99681.50
2022-12-14T01:46:35.549Z,99667.94
2022-12-14T01:47:45.152Z,99667.94
2022-12-14T01:48:50.379Z,99665.94
2022-12-14T01:50:22.775Z,99667.09
2022-12-14T01:51:27.486Z,99664.25
2022-12-14T01:52:45.277Z,99663.38
2022-12-14T01:53:48.121Z,99669.44
2022-12-14T01:54:54.161Z,99664.91
2022-12-14T01:55:56.858Z,99670.97
2022-12-14T01:56:59.634Z,99667.28
2022-12-14T01:58:16.715Z,99667.28
2022-12-14T01:59:25.438Z,99673.50
2022-12-14T02:00:27.815Z,99669.81
2022-12-14T02:01:30.142Z,99676.00
2022-12-14T02:02:32.708Z,99672.31
2022-12-14T02:03:39.033Z,99668.66
2022-12-14T02:04:47.531Z,99678.22
2022-12-14T02:05:58.221Z,99667.47
2022-12-14T02:07:03.322Z,99679.06
2022-12-14T02:08:07.594Z,99681.59
2022-12-14T02:09:15.956Z,99673.38
2022-12-14T02:10:21.537Z,99680.41
2022-12-14T02:11:39.391Z,99672.50
2022-12-14T02:12:49.680Z,99683.09
2022-12-14T02:13:51.863Z,99681.09
2022-12-14T02:14:55.335Z,99673.88
2022-12-14T02:15:57.666Z,99679.09
2022-12-14T02:17:00.764Z,99667.34
2022-12-14T02:18:06.097Z,99670.19
2022-12-14T02:19:08.307Z,99670.03
2022-12-14T02:20:11.763Z,99669.03
2022-12-14T02:21:28.563Z,99669.72
2022-12-14T02:22:33.536Z,99662.81
2022-12-14T02:24:00.728Z,99669.03
2022-12-14T02:25:34.157Z,99668.84
2022-12-14T02:26:48.617Z,99667.03
2022-12-14T02:28:08.338Z,99669.53
2022-12-14T02:29:34.621Z,99665.88
2022-12-14T02:30:42.241Z,99664.88
2022-12-14T02:32:08.859Z,99658.63
2022-12-14T02:33:35.328Z,99661.16
2022-12-14T02:34:49.391Z,99657.47
2022-12-14T02:36:10.071Z,99654.78
2022-12-14T02:37:18.434Z,99656.47
2022-12-14T02:38:33.603Z,99654.59
2022-12-14T02:39:53.969Z,99655.47
2022-12-14T02:41:08.326Z,99657.16
2022-12-14T02:42:23.808Z,99649.94
2022-12-14T02:43:26.314Z,99660.69
2022-12-14T02:44:37.116Z,99646.25
2022-12-14T02:46:24.335Z,99645.56
2022-12-14T02:47:36.452Z,99646.25
2022-12-14T02:48:47.408Z,99640.88
2022-12-14T02:50:28.262Z,99640.53
2022-12-14T02:51:41.196Z,99640.38
2022-12-14T02:53:08.474Z,99643.06
2022-12-14T02:54:21.949Z,99648.13
2022-12-14T02:55:36.949Z,99642.75
2022-12-14T02:56:50.154Z,99646.94
2022-12-14T02:58:01.914Z,99644.56
2022-12-14T02:59:08.801Z,99648.13
2022-12-14T03:00:11.649Z,99645.09
2022-12-14T03:01:17.850Z,99645.09
2022-12-14T03:02:20.481Z,99645.78
2022-12-14T03:03:23.540Z,99645.59
2022-12-14T03:04:26.077Z,99645.44
2022-12-14T03:05:28.467Z,99648.94
2022-12-14T03:06:30.841Z,99640.56
2022-12-14T03:07:40.551Z,99640.56
2022-12-14T03:08:47.113Z,99647.63
2022-12-14T03:09:49.824Z,99650.16
2022-12-14T03:11:05.319Z,99641.22
2022-12-14T03:12:13.436Z,99640.06
2022-12-14T03:13:41.164Z,99636.22
2022-12-14T03:14:50.655Z,99627.31
2022-12-14T03:16:02.774Z,99626.97
2022-12-14T03:17:14.115Z,99632.19
2022-12-14T03:18:21.588Z,99625.31
2022-12-14T03:19:32.611Z,99617.44
2022-12-14T03:20:37.300Z,99623.47
2022-12-14T03:21:46.673Z,99619.75
2022-12-14T03:23:08.103Z,99616.91
2022-12-14T03:24:14.201Z,99617.09
2022-12-14T03:25:22.456Z,99618.75
2022-12-14T03:26:41.683Z,99608.66
2022-12-14T03:28:02.401Z,99609.34
2022-12-14T03:29:18.932Z,99613.72
2022-12-14T03:30:57.732Z,99613.72
2022-12-14T03:31:49.082Z,99606.50
2022-12-14T03:33:01.748Z,99614.38
2022-12-14T03:34:13.374Z,99612.38
2022-12-14T03:35:23.596Z,99599.13
2022-12-14T03:36:32.719Z,99597.09
2022-12-14T03:37:53.416Z,99595.25
2022-12-14T03:39:00.455Z,99591.38
2022-12-14T03:40:02.897Z,99589.19
2022-12-14T03:41:28.601Z,99588.69
2022-12-14T03:42:37.859Z,99582.47
2022-12-14T03:43:49.993Z,99586.81
2022-12-14T03:45:01.051Z,99584.13
2022-12-14T03:46:11.818Z,99577.59
2022-12-14T03:47:38.780Z,99582.63
2022-12-14T03:48:47.835Z,99578.09
2022-12-14T03:50:28.326Z,99587.84
2022-12-14T03:52:02.855Z,99586.16
2022-12-14T03:53:14.718Z,99586.66
2022-12-14T03:54:21.346Z,99584.16
2022-12-14T03:55:37.759Z,99585.84
2022-12-14T03:57:15.291Z,99580.09
2022-12-14T03:58:28.360Z,99580.94
2022-12-14T03:59:36.475Z,99576.41
2022-12-14T04:00:52.728Z,99573.72
2022-12-14T04:02:26.010Z,99565.66
2022-12-14T04:03:28.807Z,99572.41
2022-12-14T04:04:57.929Z,99567.50
2022-12-14T04:06:08.968Z,99566.31
2022-12-14T04:07:17.380Z,99566.31
2022-12-14T04:08:19.588Z,99559.94
2022-12-14T04:09:21.766Z,99562.44
2022-12-14T04:10:50.249Z,99562.44
2022-12-14T04:12:26.649Z,99560.44
2022-12-14T04:13:54.869Z,99555.88
2022-12-14T04:15:28.683Z,99554.69
2022-12-14T04:16:56.962Z,99556.22
2022-12-14T04:18:24.776Z,99562.25
2022-12-14T04:19:35.080Z,99562.44
2022-12-14T04:20:55.141Z,99558.91
2022-12-14T04:22:04.636Z,99554.53
2022-12-14T04:23:39.009Z,99550.00
2022-12-14T04:25:13.375Z,99550.19
2022-12-14T04:26:20.711Z,99536.56
2022-12-14T04:27:56.120Z,99538.25
2022-12-14T04:29:22.105Z,99545.94
2022-12-14T04:30:24.642Z,99547.97
2022-12-14T04:31:30.922Z,99545.44
2022-12-14T04:32:39.150Z,99538.88
2022-12-14T04:33:47.477Z,99551.16
2022-12-14T04:34:53.855Z,99537.19
2022-12-14T04:35:58.921Z,99534.38
2022-12-14T04:37:08.720Z,99532.31
2022-12-14T04:38:18.701Z,99532.50
2022-12-14T04:40:07.299Z,99524.94
2022-12-14T04:41:15.641Z,99524.78
2022-12-14T04:42:23.687Z,99523.75
2022-12-14T04:43:34.244Z,99528.97
2022-12-14T04:44:43.167Z,99527.94
2022-12-14T04:45:51.889Z,99521.91
2022-12-14T04:46:55.460Z,99528.97
2022-12-14T04:48:09.324Z,99521.75
2022-12-14T04:49:18.853Z,99514.69
2022-12-14T04:50:32.729Z,99514.69
2022-12-14T04:51:51.276Z,99513.69
2022-12-14T04:53:01.733Z,99508.97
2022-12-14T04:54:26.494Z,99501.56
2022-12-14T04:55:55.467Z,99503.41
2022-12-14T04:57:20.955Z,99503.41
2022-12-14T04:58:26.940Z,99501.56
2022-12-14T04:59:29.438Z,99508.97
2022-12-14T05:00:34.926Z,99497.34
2022-12-14T05:02:08.975Z,99496.34
2022-12-14T05:03:27.701Z,99496.16
2022-12-14T05:04:34.706Z,99496.16
2022-12-14T05:05:56.256Z,99485.25
2022-12-14T05:07:37.517Z,99482.72
2022-12-14T05:09:09.692Z,99473.84
2022-12-14T05:10:22.327Z,99473.66
2022-12-14T05:13:14.834Z,99469.09
2022-12-14T05:14:23.150Z,99482.38
2022-12-14T05:15:39.684Z,99487.59
2022-12-14T05:16:42.025Z,99479.69
2022-12-14T05:17:52.930Z,99480.53
2022-12-14T05:18:55.216Z,99475.16
2022-12-14T05:19:57.478Z,99476.97
2022-12-14T05:20:59.707Z,99469.78
2022-12-14T05:22:06.182Z,99464.41
2022-12-14T05:23:09.171Z,99482.22
2022-12-14T05:24:11.355Z,99475.16
2022-12-14T05:25:13.884Z,99479.69
2022-12-14T05:26:16.075Z,99481.19
2022-12-14T05:27:18.350Z,99481.19
2022-12-14T05:28:20.563Z,99479.34
2022-12-14T05:29:22.743Z,99475.97
2022-12-14T05:30:25.575Z,99464.56
2022-12-14T05:31:27.834Z,99464.41
2022-12-14T05:32:30.187Z,99465.03
2022-12-14T05:33:32.376Z,99463.84
2022-12-14T05:34:34.614Z,99459.97
2022-12-14T05:35:36.793Z,99459.50
2022-12-14T05:36:38.991Z,99460.16
2022-12-14T05:37:42.687Z,99448.56
2022-12-14T05:38:44.892Z,99458.31
2022-12-14T05:39:47.520Z,99457.97
2022-12-14T05:40:49.733Z,99458.97
2022-12-14T05:41:53.478Z,99449.88
2022-12-14T05:43:06.852Z,99455.28
2022-12-14T05:44:09.469Z,99447.19
2022-12-14T05:45:12.954Z,99456.94
2022-12-14T05:46:15.300Z,99457.97
2022-12-14T05:47:17.533Z,99445.19
2022-12-14T05:48:19.773Z,99446.00
2022-12-14T05:49:22.196Z,99441.44
2022-12-14T05:50:24.590Z,99441.63
2022-12-14T05:51:26.826Z,99448.69
2022-12-14T05:52:29.069Z,99434.75
2022-12-14T05:53:31.339Z,99441.81
2022-12-14T05:54:33.576Z,99434.56
2022-12-14T05:55:35.801Z,99434.75
2022-12-14T05:56:37.986Z,99432.06
2022-12-14T05:57:40.460Z,99427.34
2022-12-14T05:58:42.885Z,99430.69
2022-12-14T05:59:45.092Z,99428.69
2022-12-14T06:00:47.762Z,99428.50
2022-12-14T06:01:50.707Z,99433.06
2022-12-14T06:02:55.585Z,99426.34
2022-12-14T06:03:57.911Z,99421.78
2022-12-14T06:05:00.197Z,99423.81
2022-12-14T06:06:11.725Z,99417.25
2022-12-14T06:07:13.980Z,99418.75
2022-12-14T06:08:16.167Z,99420.13
2022-12-14T06:09:19.041Z,99416.91
2022-12-14T06:10:21.254Z,99412.91
2022-12-14T06:11:24.521Z,99413.53
2022-12-14T06:12:26.751Z,99406.31
2022-12-14T06:13:29.374Z,99418.75
2022-12-14T06:14:31.874Z,99424.31
2022-12-14T06:15:34.332Z,99414.72
2022-12-14T06:16:39.554Z,99412.91
2022-12-14T06:17:45.349Z,99412.53
2022-12-14T06:19:13.832Z,99407.97
2022-12-14T06:20:16.109Z,99413.22
2022-12-14T06:21:22.020Z,99420.09
2022-12-14T06:22:25.156Z,99418.88
2022-12-14T06:23:27.658Z,99414.53
2022-12-14T06:24:30.554Z,99419.91
2022-12-14T06:25:32.829Z,99415.34
2022-12-14T06:26:43.487Z,99416.19
2022-12-14T06:27:45.709Z,99415.34
2022-12-14T06:28:47.922Z,99421.41
2022-12-14T06:29:50.472Z,99419.53
2022-12-14T06:30:52.903Z,99413.16
2022-12-14T06:31:55.190Z,99412.97
2022-12-14T06:32:57.391Z,99412.13
2022-12-14T06:34:02.769Z,99412.13
2022-12-14T06:35:05.535Z,99406.09
2022-12-14T06:36:12.361Z,99407.78
2022-12-14T06:37:14.626Z,99398.84
2022-12-14T06:38:18.069Z,99397.34
2022-12-14T06:39:20.266Z,99404.78
2022-12-14T06:40:22.457Z,99404.59
2022-12-14T06:41:25.013Z,99391.97
2022-12-14T06:42:27.509Z,99403.75
2022-12-14T06:43:29.992Z,99383.88
2022-12-14T06:44:32.514Z,99389.25
2022-12-14T06:45:34.936Z,99388.06
2022-12-14T06:46:37.723Z,99387.06
2022-12-14T06:47:40.328Z,99388.06
2022-12-14T06:48:42.813Z,99376.31
2022-12-14T06:49:45.001Z,99391.25
2022-12-14T06:50:47.215Z,99393.31
2022-12-14T06:51:49.404Z,99397.72
2022-12-14T06:52:52.142Z,99383.88
2022-12-14T06:53:56.134Z,99385.75
2022-12-14T06:54:58.334Z,99375.66
2022-12-14T06:56:07.596Z,99390.13
2022-12-14T06:57:09.846Z,99387.25
2022-12-14T06:58:13.871Z,99380.69
2022-12-14T06:59:17.490Z,99386.06
2022-12-14T07:00:22.162Z,99383.19
2022-12-14T07:01:25.724Z,99370.72
2022-12-14T07:02:28.192Z,99378.47
2022-12-14T07:03:31.507Z,99376.78
2022-12-14T07:04:33.930Z,99376.41
2022-12-14T07:05:36.401Z,99382.66
2022-12-14T07:06:41.567Z,99384.69
2022-12-14T07:07:43.807Z,99387.19
2022-12-14T07:08:46.428Z,99389.88
2022-12-14T07:09:48.757Z,99392.88
2022-12-14T07:10:51.047Z,99387.50
2022-12-14T07:11:53.268Z,99388.16
2022-12-14T07:12:55.666Z,99390.84
2022-12-14T07:14:00.877Z,99377.22
2022-12-14T07:15:03.419Z,99381.56
2022-12-14T07:16:08.143Z,99379.91
2022-12-14T07:17:10.541Z,99370.44
2022-12-14T07:18:12.871Z,99381.41
2022-12-14T07:19:15.061Z,99378.34
2022-12-14T07:20:17.797Z,99375.81
2022-12-14T07:21:21.712Z,99370.44
2022-12-14T07:22:24.135Z,99374.16
2022-12-14T07:23:28.282Z,99374.00
2022-12-14T07:24:31.196Z,99371.13
2022-12-14T07:25:33.376Z,99368.22
2022-12-14T07:26:36.446Z,99368.06
2022-12-14T07:27:38.660Z,99366.22
2022-12-14T07:28:41.495Z,99372.41
2022-12-14T07:29:47.564Z,99358.13
2022-12-14T07:30:55.717Z,99357.28
2022-12-14T07:31:58.030Z,99360.81
2022-12-14T07:33:00.225Z,99356.75
2022-12-14T07:34:04.698Z,99357.09
2022-12-14T07:35:10.454Z,99353.38
2022-12-14T07:36:20.807Z,99352.19
2022-12-14T07:37:27.290Z,99351.38
2022-12-14T07:38:29.493Z,99351.56
2022-12-14T07:39:31.705Z,99354.06
2022-12-14T07:40:34.358Z,99353.38
2022-12-14T07:41:36.628Z,99352.00
2022-12-14T07:42:38.838Z,99341.25
2022-12-14T07:43:46.067Z,99353.69
2022-12-14T07:44:52.140Z,99347.28
2022-12-14T07:45:54.387Z,99341.91
2022-12-14T07:46:56.650Z,99339.69
2022-12-14T07:48:06.584Z,99342.19
2022-12-14T07:49:09.188Z,99344.06
2022-12-14T07:50:11.378Z,99340.53
2022-12-14T07:51:16.083Z,99339.50
2022-12-14T07:52:18.287Z,99338.69
2022-12-14T07:53:20.798Z,99336.63
2022-12-14T07:54:23.461Z,99335.63
2022-12-14T07:55:26.886Z,99330.22
2022-12-14T07:56:34.107Z,99330.72
2022-12-14T07:57:36.360Z,99326.97
2022-12-14T07:58:38.961Z,99332.00
2022-12-14T07:59:41.399Z,99323.94
2022-12-14T08:00:43.607Z,99326.44
2022-12-14T08:01:46.063Z,99322.91
2022-12-14T08:02:48.782Z,99325.44
2022-12-14T08:03:56.605Z,99318.34
2022-12-14T08:04:58.994Z,99323.38
2022-12-14T08:06:05.392Z,99315.28
2022-12-14T08:07:07.781Z,99326.53
2022-12-14T08:08:09.975Z,99317.25
2022-12-14T08:09:13.242Z,99318.13
2022-12-14T08:10:15.527Z,99318.28
2022-12-14T08:11:18.746Z,99314.38
2022-12-14T08:12:21.053Z,99316.06
2022-12-14T08:13:23.261Z,99309.84
2022-12-14T08:14:25.470Z,99309.28
2022-12-14T08:15:28.653Z,99308.25
2022-12-14T08:16:33.177Z,99308.06
2022-12-14T08:17:35.425Z,99306.03
2022-12-14T08:18:38.012Z,99308.06
2022-12-14T08:19:40.231Z,99310.94
2022-12-14T08:20:42.480Z,99300.19
2022-12-14T08:21:45.917Z,99297.09
2022-12-14T08:22:51.145Z,99290.06
2022-12-14T08:23:57.266Z,99300.06
2022-12-14T08:24:59.510Z,99295.53
2022-12-14T08:26:03.558Z,99293.66
2022-12-14T08:27:05.864Z,99288.09
2022-12-14T08:28:08.228Z,99284.84
2022-12-14T08:29:15.273Z,99287.56
2022-12-14T08:30:17.531Z,99287.75
2022-12-14T08:31:22.092Z,99284.47
2022-12-14T08:32:27.239Z,99282.44
2022-12-14T08:33:34.965Z,99280.56
2022-12-14T08:34:37.177Z,99276.84
2022-12-14T08:35:39.451Z,99282.91
2022-12-14T08:36:41.633Z,99294.13
2022-12-14T08:37:47.522Z,99285.69
2022-12-14T08:38:54.249Z,99275.53
2022-12-14T08:39:56.566Z,99279.91
2022-12-14T08:41:05.905Z,99291.53
2022-12-14T08:42:08.132Z,99281.19
2022-12-14T08:43:10.409Z,99276.47
2022-12-14T08:44:13.736Z,99283.16
2022-12-14T08:45:16.002Z,99275.91
2022-12-14T08:46:19.041Z,99281.94
2022-12-14T08:47:21.353Z,99278.84
2022-12-14T08:48:24.656Z,99278.84
2022-12-14T08:49:32.112Z,99279.72
2022-12-14T08:50:34.686Z,99265.38
2022-12-14T08:51:38.289Z,99261.19
2022-12-14T08:52:40.552Z,99263.53
2022-12-14T08:53:43.240Z,99266.69
2022-12-14T08:54:45.463Z,99254.03
2022-12-14T08:55:47.693Z,99252.81
2022-12-14T08:56:49.876Z,99245.41
2022-12-14T08:57:52.143Z,99253.09
2022-12-14T08:58:55.784Z,99241.28
2022-12-14T09:00:01.613Z,99245.84
2022-12-14T09:01:06.956Z,99257.06
2022-12-14T09:02:10.295Z,99246.09
2022-12-14T09:03:12.601Z,99244.88
2022-12-14T09:04:17.835Z,99243.88
2022-12-14T09:05:20.222Z,99233.91
2022-12-14T09:06:27.897Z,99235.56
2022-12-14T09:07:30.875Z,99236.84
2022-12-14T09:08:33.479Z,99236.22
2022-12-14T09:09:37.361Z,99235.66
2022-12-14T09:10:40.564Z,99228.88
2022-12-14T09:11:45.069Z,99234.06
2022-12-14T09:12:47.283Z,99232.19
2022-12-14T09:13:54.314Z,99227.25
2022-12-14T09:14:56.560Z,99232.91
2022-12-14T09:16:05.781Z,99232.91
2022-12-14T09:17:08.004Z,99222.13
2022-12-14T09:18:10.224Z,99216.13
2022-12-14T09:19:12.586Z,99224.69
2022-12-14T09:20:14.877Z,99216.38
2022-12-14T09:21:18.166Z,99213.50
2022-12-14T09:22:20.684Z,99213.94
2022-12-14T09:23:26.153Z,99207.31
2022-12-14T09:24:28.739Z,99217.91
2022-12-14T09:25:30.935Z,99209.81
2022-12-14T09:26:33.955Z,99203.19
2022-12-14T09:27:36.471Z,99205.91
2022-12-14T09:28:40.609Z,99195.75
2022-12-14T09:29:45.389Z,99202.63
2022-12-14T09:30:47.614Z,99197.22
2022-12-14T09:31:49.923Z,99200.38
2022-12-14T09:32:52.807Z,99198.69
2022-12-14T09:33:55.406Z,99193.50
2022-12-14T09:34:59.655Z,99194.97
2022-12-14T09:36:08.350Z,99188.56
2022-12-14T09:37:10.647Z,99191.88
2022-12-14T09:38:15.898Z,99178.84
2022-12-14T09:39:18.299Z,99194.41
2022-12-14T09:40:27.078Z,99183.81
2022-12-14T09:41:37.394Z,99192.13
2022-12-14T09:42:57.936Z,99183.81
2022-12-14T09:44:18.673Z,99175.34
2022-12-14T09:45:32.917Z,99174.94
2022-12-14T09:46:55.484Z,99188.25
2022-12-14T09:48:18.719Z,99188.25
2022-12-14T09:49:42.130Z,99171.84
2022-12-14T09:50:49.971Z,99166.88
2022-12-14T09:51:55.305Z,99177.69
2022-12-14T09:53:01.837Z,99174.78
2022-12-14T09:54:08.474Z,99168.56
2022-12-14T09:55:41.332Z,99169.38
2022-12-14T09:56:44.274Z,99160.47
2022-12-14T09:57:50.439Z,99158.22
2022-12-14T09:58:58.568Z,99141.59
2022-12-14T10:00:00.835Z,99145.16
2022-12-14T10:01:22.748Z,99138.69
2022-12-14T10:03:02.920Z,99153.06
2022-12-14T10:04:14.727Z,99141.19
2022-12-14T10:05:41.020Z,99126.88
2022-12-14T10:07:03.158Z,99131.03
2022-12-14T10:08:34.005Z,99153.09
2022-12-14T10:09:46.695Z,99153.28
2022-12-14T10:11:01.394Z,99131.03
2022-12-14T10:12:34.398Z,99137.25
2022-12-14T10:14:14.672Z,99145.38
2022-12-14T10:16:20.316Z,99135.00
2022-12-14T10:17:22.516Z,99137.94
2022-12-14T10:19:00.936Z,99132.16
2022-12-14T10:20:29.861Z,99139.66
2022-12-14T10:21:54.602Z,99150.25
2022-12-14T10:22:57.505Z,99138.19
2022-12-14T10:24:03.441Z,99127.16
2022-12-14T10:25:13.712Z,99132.56
2022-12-14T10:26:19.326Z,99133.63
2022-12-14T10:27:23.877Z,99124.47
2022-12-14T10:28:32.339Z,99125.94
2022-12-14T10:29:49.017Z,99124.09
2022-12-14T10:30:55.066Z,99121.38
2022-12-14T10:32:19.368Z,99109.72
2022-12-14T10:33:26.551Z,99103.09
2022-12-14T10:34:30.625Z,99112.88
2022-12-14T10:35:55.587Z,99108.13
2022-12-14T10:37:20.768Z,99105.81
2022-12-14T10:38:49.071Z,99108.75
2022-12-14T10:40:13.740Z,99108.75
2022-12-14T10:41:34.773Z,99100.47
2022-12-14T10:42:42.592Z,99099.84
2022-12-14T10:44:17.334Z,99104.41
2022-12-14T10:45:46.379Z,99119.19
2022-12-14T10:46:59.236Z,99089.25
2022-12-14T10:48:11.583Z,99091.75
2022-12-14T10:49:24.607Z,99088.03
2022-12-14T10:50:54.798Z,99099.88
2022-12-14T10:52:08.801Z,99098.47
2022-12-14T10:53:17.959Z,99088.03
2022-12-14T10:54:43.451Z,99088.03
2022-12-14T10:55:47.041Z,99090.75
2022-12-14T10:56:50.641Z,99083.69
2022-12-14T10:57:55.265Z,99095.13
2022-12-14T10:59:25.826Z,99084.31
2022-12-14T11:00:28.871Z,99083.28
2022-12-14T11:01:31.404Z,99087.44
2022-12-14T11:02:36.688Z,99062.09
2022-12-14T11:03:39.998Z,99067.06
2022-12-14T11:05:00.626Z,99072.91
2022-12-14T11:06:15.593Z,99071.03
2022-12-14T11:07:25.027Z,99071.22
2022-12-14T11:08:48.351Z,99078.94
2022-12-14T11:09:50.926Z,99067.06
2022-12-14T11:11:11.563Z,99086.22
2022-12-14T11:12:18.302Z,99071.25
2022-12-14T11:13:21.496Z,99078.75
2022-12-14T11:14:24.512Z,99076.06
2022-12-14T11:15:46.049Z,99077.72
2022-12-14T11:16:48.298Z,99078.13
2022-12-14T11:18:02.498Z,99067.09
2022-12-14T11:19:15.262Z,99072.31
2022-12-14T11:20:21.539Z,99069.41
2022-12-14T11:21:49.966Z,99072.72
2022-12-14T11:23:07.955Z,99065.03
2022-12-14T11:24:23.149Z,99063.56
2022-12-14T11:25:25.345Z,99060.84
2022-12-14T11:26:34.141Z,99064.19
2022-12-14T11:27:39.279Z,99062.31
2022-12-14T11:28:49.936Z,99058.38
2022-12-14T11:29:52.764Z,99057.56
2022-12-14T11:30:59.733Z,99053.38
2022-12-14T11:32:03.511Z,99056.50
2022-12-14T11:33:05.868Z,99054.19
2022-12-14T11:34:22.102Z,99050.25
2022-12-14T11:35:24.863Z,99053.81
2022-12-14T11:36:38.651Z,99050.06
2022-12-14T11:37:41.458Z,99047.97
2022-12-14T11:38:57.404Z,99044.84
2022-12-14T11:40:02.225Z,99050.06
2022-12-14T11:41:10.704Z,99056.72
2022-12-14T11:42:19.112Z,99050.44
2022-12-14T11:43:27.939Z,99058.16
2022-12-14T11:44:36.500Z,99058.16
2022-12-14T11:45:39.853Z,99053.59
2022-12-14T11:46:45.467Z,99050.66
2022-12-14T11:48:11.580Z,99053.59
2022-12-14T11:49:24.235Z,99045.69
2022-12-14T11:50:31.406Z,99050.06
2022-12-14T11:51:33.780Z,99046.31
2022-12-14T11:52:38.643Z,99046.09
2022-12-14T11:53:41.616Z,99041.50
2022-12-14T11:55:02.770Z,99044.44
2022-12-14T11:56:10.747Z,99037.34
2022-12-14T11:57:12.927Z,99034.03
2022-12-14T11:58:37.764Z,99036.50
2022-12-14T11:59:50.617Z,99035.06
2022-12-14T12:01:00.906Z,99037.75
2022-12-14T12:02:15.565Z,99044.63
2022-12-14T12:03:30.188Z,99034.44
2022-12-14T12:04:39.110Z,99034.44
2022-12-14T12:05:44.357Z,99037.97
2022-12-14T12:06:47.377Z,99037.97
2022-12-14T12:07:49.542Z,99038.41
2022-12-14T12:08:58.515Z,99037.34
2022-12-14T12:10:16.040Z,99034.44
2022-12-14T12:11:23.622Z,99042.34
2022-12-14T12:12:26.793Z,99036.72
2022-12-14T12:13:37.243Z,99044.63
2022-12-14T12:14:40.036Z,99046.28
2022-12-14T12:15:50.316Z,99038.19
2022-12-14T12:16:53.355Z,99034.44
2022-12-14T12:18:31.073Z,99031.50
2022-12-14T12:19:38.058Z,99029.63
2022-12-14T12:20:52.281Z,99027.78
2022-12-14T12:21:56.447Z,99037.75
2022-12-14T12:23:08.025Z,99025.91
2022-12-14T12:24:15.716Z,99032.13
2022-12-14T12:25:33.646Z,99032.75
2022-12-14T12:26:54.165Z,99021.50
2022-12-14T12:28:04.778Z,99014.22
2022-12-14T12:29:44.423Z,99020.47
2022-12-14T12:30:51.203Z,99016.72
2022-12-14T12:32:02.493Z,99015.06
2022-12-14T12:33:49.115Z,99011.53
2022-12-14T12:35:11.036Z,99010.06
2022-12-14T12:36:23.481Z,99009.44
2022-12-14T12:37:38.925Z,99008.41
2022-12-14T12:38:50.032Z,99009.44
2022-12-14T12:40:00.785Z,99012.78
2022-12-14T12:41:25.271Z,99000.88
2022-12-14T12:42:45.255Z,98997.38
2022-12-14T12:44:30.285Z,99011.53
2022-12-14T12:45:41.976Z,99008.41
2022-12-14T12:47:22.973Z,99003.22
2022-12-14T12:48:23.254Z,98999.25
2022-12-14T12:49:25.605Z,99005.69
2022-12-14T12:50:35.602Z,98995.09
2022-12-14T12:51:49.987Z,98990.50
2022-12-14T12:53:06.722Z,99000.28
2022-12-14T12:54:16.355Z,99000.88
2022-12-14T12:55:21.348Z,99002.16
2022-12-14T12:56:29.328Z,99002.34
2022-12-14T12:57:44.536Z,99000.50
2022-12-14T12:58:52.631Z,98999.25
2022-12-14T12:59:57.692Z,98996.13
2022-12-14T13:01:05.228Z,99004.25
2022-12-14T13:02:29.882Z,99001.75
2022-12-14T13:03:39.714Z,99005.06
2022-12-14T13:04:50.771Z,99004.69
2022-12-14T13:06:08.381Z,98999.66
2022-12-14T13:07:41.537Z,98995.72
2022-12-14T13:08:49.756Z,98994.03
2022-12-14T13:10:05.267Z,98987.59
2022-12-14T13:11:26.282Z,99004.47
2022-12-14T13:12:32.960Z,99000.09
2022-12-14T13:13:42.994Z,99006.13
2022-12-14T13:14:49.816Z,99002.78
2022-12-14T13:16:21.574Z,99001.97
2022-12-14T13:17:46.883Z,98990.94
2022-12-14T13:19:04.876Z,98988.00
2022-12-14T13:20:33.353Z,98990.94
2022-12-14T13:21:47.970Z,98992.59
2022-12-14T13:22:53.878Z,98988.44
2022-12-14T13:23:56.613Z,98984.47
2022-12-14T13:25:23.467Z,98984.25
2022-12-14T13:27:04.990Z,98980.50
2022-12-14T13:28:21.360Z,98975.72
2022-12-14T13:30:06.207Z,98974.03
2022-12-14T13:31:35.544Z,98975.94